Time;durP1;ratioP1;P1;durP2;ratioP2;P2;SDS_P1;SDS_P2;PMS_P1;PMS_P2;Temp;Humidity;BMP_temperature;BMP_pressure;BME280_temperature;BME280_humidity;BME280_pressure;Samples;Min_cycle;Max_cycle;Signal;HPM_P1;HPM_P2
2021/06/19 00:01:26;;;;;;;;;;;;;;;21.13;56.49;101231.66;2202683;39;115655;-54
2021/06/19 00:02:59;;;;;;;;;;;;;;;21.13;56.67;101225.22;2205279;39;116145;-55
2021/06/19 00:04:31;;;;;;;;;;;;;;;21.13;56.64;101226.06;2207434;39;115518;-53
2021/06/19 00:06:03;;;;;;;;;;;;;;;21.15;56.53;101234.19;2204960;39;115629;-52
2021/06/19 00:07:35;;;;;;;;;;;;;;;21.14;56.59;101232.50;2202081;39;115574;-54
2021/06/19 00:09:07;;;;;;;;;;;;;;;21.15;56.57;101237.00;2205767;39;115690;-53
2021/06/19 00:10:40;;;;;;;;;;;;;;;21.16;56.92;101227.44;2207768;39;115225;-53
2021/06/19 00:12:12;;;;;;;;;;;;;;;21.15;56.60;101223.78;2204417;39;115803;-54
2021/06/19 00:13:44;;;;;;;;;;;;;;;21.16;56.83;101231.09;2197608;39;114017;-53
2021/06/19 00:15:17;;;;;;;;;;;;;;;21.18;56.68;101230.75;2201305;39;114056;-53
2021/06/19 00:16:49;;;;;;;;;;;;;;;21.18;56.78;101237.22;2200836;39;113865;-53
2021/06/19 00:18:23;;;;;;;;;;;;;;;21.17;56.37;101243.13;2204408;39;113748;-53
2021/06/19 00:19:55;;;;;;;;;;;;;;;21.17;56.54;101240.31;2204986;39;113795;-53
2021/06/19 00:21:27;;;;;;;;;;;;;;;21.19;56.68;101247.31;2194315;39;113928;-53
2021/06/19 00:22:59;;;;;;;;;;;;;;;21.20;56.61;101245.34;2199023;39;113570;-52
2021/06/19 00:24:35;;;;;;;;;;;;;;;21.19;56.75;101244.50;2195795;39;114049;-53
2021/06/19 00:26:06;;;;;;;;;;;;;;;21.22;56.89;101251.47;2196351;39;114026;-53
2021/06/19 00:27:38;;;;;;;;;;;;;;;21.21;56.48;101249.84;2201800;39;113721;-53
2021/06/19 00:29:10;;;;;;;;;;;;;;;21.21;56.20;101247.84;2202494;39;113935;-53
2021/06/19 00:30:42;;;;;;;;;;;;;;;21.21;56.42;101242.22;2202149;39;114178;-54
2021/06/19 00:32:14;;;;;;;;;;;;;;;21.21;56.44;101247.84;2204797;39;113800;-53
2021/06/19 00:33:46;;;;;;;;;;;;;;;21.21;56.87;101245.03;2207538;39;114280;-53
2021/06/19 00:35:20;;;;;;;;;;;;;;;21.22;56.43;101248.66;2204090;39;113963;-53
2021/06/19 00:36:52;;;;;;;;;;;;;;;21.23;56.39;101241.91;2200980;39;114838;-52
2021/06/19 00:38:23;;;;;;;;;;;;;;;21.23;56.53;101241.91;2192169;39;115010;-53
2021/06/19 00:39:55;;;;;;;;;;;;;;;21.22;56.83;101234.63;2198922;39;115114;-52
2021/06/19 00:41:27;;;;;;;;;;;;;;;21.23;56.81;101225.88;2203902;39;115009;-53
2021/06/19 00:43:01;;;;;;;;;;;;;;;21.24;56.41;101226.72;2203648;39;114827;-52
2021/06/19 00:44:33;;;;;;;;;;;;;;;21.25;56.52;101231.22;2199588;39;115174;-53
2021/06/19 00:46:04;;;;;;;;;;;;;;;21.25;56.29;101222.78;2204073;39;114244;-54
2021/06/19 00:47:38;;;;;;;;;;;;;;;21.27;56.42;101224.13;2194794;39;114874;-52
2021/06/19 00:49:10;;;;;;;;;;;;;;;21.26;56.50;101224.44;2202114;39;115016;-53
2021/06/19 00:50:43;;;;;;;;;;;;;;;21.26;56.33;101224.44;2199982;39;114780;-53
2021/06/19 00:52:15;;;;;;;;;;;;;;;21.27;56.51;101226.09;2195235;39;114811;-53
2021/06/19 00:53:47;;;;;;;;;;;;;;;21.26;56.39;101228.09;2200463;39;114738;-52
2021/06/19 00:55:19;;;;;;;;;;;;;;;21.28;56.22;101227.78;2202027;39;114921;-52
2021/06/19 00:56:51;;;;;;;;;;;;;;;21.28;56.41;101216.53;2198735;39;115160;-52
2021/06/19 00:58:23;;;;;;;;;;;;;;;21.28;56.61;101220.19;2201979;39;115528;-52
2021/06/19 00:59:57;;;;;;;;;;;;;;;21.28;56.13;101217.38;2194500;39;115582;-53
2021/06/19 01:01:29;;;;;;;;;;;;;;;21.30;56.63;101219.91;2200171;39;115614;-52
2021/06/19 01:03:01;;;;;;;;;;;;;;;21.30;56.49;101217.88;2195258;39;115583;-55
2021/06/19 01:04:33;;;;;;;;;;;;;;;21.30;56.08;101220.69;2197386;39;115500;-53
2021/06/19 01:06:05;;;;;;;;;;;;;;;21.30;56.20;101209.47;2205346;39;115929;-52
2021/06/19 01:07:41;;;;;;;;;;;;;;;21.30;56.10;101214.28;2194842;39;116082;-53
2021/06/19 01:09:13;;;;;;;;;;;;;;;21.29;56.18;101207.81;2195595;39;115548;-52
2021/06/19 01:10:45;;;;;;;;;;;;;;;21.32;56.19;101206.34;2202737;39;114530;-52
2021/06/19 01:12:23;;;;;;;;;;;;;;;21.32;56.16;101205.50;2197550;39;114594;-53
2021/06/19 01:13:55;;;;;;;;;;;;;;;21.32;56.45;101209.16;2196504;39;116095;-53
2021/06/19 01:15:28;;;;;;;;;;;;;;;21.33;56.61;101210.84;2202947;39;116167;-53
2021/06/19 01:17:00;;;;;;;;;;;;;;;21.33;56.31;101212.81;2197976;39;115515;-52
2021/06/19 01:18:32;;;;;;;;;;;;;;;21.34;56.22;101208.88;2197279;39;115562;-52
2021/06/19 01:20:06;;;;;;;;;;;;;;;21.34;56.39;101208.88;2202913;39;113695;-53
2021/06/19 01:21:38;;;;;;;;;;;;;;;21.33;56.19;101205.22;2197844;39;113660;-53
2021/06/19 01:23:10;;;;;;;;;;;;;;;21.34;56.46;101203.25;2204234;39;113992;-52
2021/06/19 01:24:42;;;;;;;;;;;;;;;21.35;56.44;101200.09;2202264;39;113826;-52
2021/06/19 01:26:15;;;;;;;;;;;;;;;21.35;56.68;101190.88;2202233;39;113712;-53
2021/06/19 01:27:48;;;;;;;;;;;;;;;21.35;56.55;101194.47;2200518;39;113847;-53
2021/06/19 01:29:20;;;;;;;;;;;;;;;21.35;56.30;101194.47;2194095;39;113639;-52
2021/06/19 01:30:52;;;;;;;;;;;;;;;21.35;56.45;101191.66;2193094;39;114282;-53
2021/06/19 01:32:26;;;;;;;;;;;;;;;21.36;56.54;101189.69;2201016;39;113723;-52
2021/06/19 01:33:59;;;;;;;;;;;;;;;21.35;56.63;101186.03;2198368;39;113757;-52
2021/06/19 01:35:31;;;;;;;;;;;;;;;21.35;56.73;101177.63;2201889;39;114108;-52
2021/06/19 01:37:03;;;;;;;;;;;;;;;21.36;56.84;101179.28;2203438;39;113740;-52
2021/06/19 01:38:38;;;;;;;;;;;;;;;21.36;56.83;101176.47;2191609;39;113661;-52
2021/06/19 01:40:13;;;;;;;;;;;;;;;21.41;56.93;101176.41;2199986;39;113756;-53
2021/06/19 01:41:46;;;;;;;;;;;;;;;21.40;56.63;101174.72;2203655;39;114940;-52
2021/06/19 01:43:18;;;;;;;;;;;;;;;21.37;56.44;101188.56;2202137;39;114848;-52
2021/06/19 01:44:49;;;;;;;;;;;;;;;21.39;55.83;101183.47;2201542;39;115360;-53
2021/06/19 01:46:21;;;;;;;;;;;;;;;21.41;56.03;101192.41;2201851;39;115842;-52
2021/06/19 01:47:53;;;;;;;;;;;;;;;21.40;56.32;101202.81;2202085;39;114764;-52
2021/06/19 01:49:28;;;;;;;;;;;;;;;21.40;56.09;101207.63;2197744;39;113889;-53
2021/06/19 01:51:00;;;;;;;;;;;;;;;21.41;55.90;101223.34;2199644;39;115147;-53
2021/06/19 01:52:32;;;;;;;;;;;;;;;21.40;56.06;101230.09;2191963;39;114930;-54
2021/06/19 01:54:04;;;;;;;;;;;;;;;21.42;55.57;101225.00;2189774;39;115396;-53
2021/06/19 01:55:36;;;;;;;;;;;;;;;21.40;55.54;101233.75;2202752;39;115128;-53
2021/06/19 01:57:08;;;;;;;;;;;;;;;21.43;55.29;101232.31;2203812;39;115470;-53
2021/06/19 01:58:40;;;;;;;;;;;;;;;21.41;55.10;101235.44;2201617;39;114788;-51
2021/06/19 02:00:15;;;;;;;;;;;;;;;21.41;55.27;101245.84;2202205;39;114774;-57
2021/06/19 02:01:48;;;;;;;;;;;;;;;21.39;54.75;101236.88;2199612;39;115225;-53
2021/06/19 02:03:20;;;;;;;;;;;;;;;21.40;54.92;101249.78;2200494;39;115637;-52
2021/06/19 02:04:52;;;;;;;;;;;;;;;21.39;54.58;101240.53;2188220;39;116078;-53
2021/06/19 02:06:24;;;;;;;;;;;;;;;21.38;54.93;101241.66;2192298;39;115548;-52
2021/06/19 02:07:57;;;;;;;;;;;;;;;21.37;54.52;101239.16;2202843;39;115506;-53
2021/06/19 02:09:29;;;;;;;;;;;;;;;21.37;54.91;101236.34;2198243;39;115495;-53
2021/06/19 02:11:02;;;;;;;;;;;;;;;21.36;54.43;101237.47;2195962;39;117040;-52
2021/06/19 02:12:34;;;;;;;;;;;;;;;21.36;54.20;101237.47;2192544;39;115460;-53
2021/06/19 02:14:06;;;;;;;;;;;;;;;21.34;54.35;101237.81;2200359;39;114428;-52
2021/06/19 02:15:39;;;;;;;;;;;;;;;21.35;54.19;101247.88;2204649;39;115431;-53
2021/06/19 02:19:38;;;;;;;;;;;;;;;21.32;54.16;101264.53;2195227;39;114116;-52
2021/06/19 02:21:10;;;;;;;;;;;;;;;21.32;54.27;101258.91;2192849;39;116514;-52
2021/06/19 02:22:42;;;;;;;;;;;;;;;21.33;54.10;101269.03;2198985;39;116601;-54
2021/06/19 02:24:14;;;;;;;;;;;;;;;21.32;54.34;101265.38;2201855;39;115462;-52
2021/06/19 02:25:48;;;;;;;;;;;;;;;21.31;54.06;101269.31;2198726;39;115563;-53
2021/06/19 02:27:24;;;;;;;;;;;;;;;21.30;54.04;101268.47;2201141;39;114699;-52
2021/06/19 02:28:56;;;;;;;;;;;;;;;21.30;54.22;101270.47;2197696;39;113763;-52
2021/06/19 02:30:30;;;;;;;;;;;;;;;21.29;54.30;101272.47;2201624;39;114415;-53
2021/06/19 02:32:02;;;;;;;;;;;;;;;21.29;54.17;101271.63;2197028;39;113766;-52
2021/06/19 02:33:36;;;;;;;;;;;;;;;21.28;54.15;101281.19;2196096;39;113928;-53
2021/06/19 02:35:08;;;;;;;;;;;;;;;21.29;53.76;101283.69;2198880;39;114140;-52
2021/06/19 02:36:40;;;;;;;;;;;;;;;21.27;54.33;101280.34;2201628;39;113678;-52
2021/06/19 02:38:12;;;;;;;;;;;;;;;21.28;54.46;101272.75;2199222;39;113899;-52
2021/06/19 02:39:44;;;;;;;;;;;;;;;21.29;54.54;101271.63;2200636;39;116199;-52
2021/06/19 02:41:16;;;;;;;;;;;;;;;21.28;54.70;101276.41;2193515;39;114921;-53
2021/06/19 02:42:48;;;;;;;;;;;;;;;21.28;54.36;101279.22;2200737;39;113703;-53
2021/06/19 02:44:20;;;;;;;;;;;;;;;21.29;54.67;101278.06;2202892;39;113631;-53
2021/06/19 02:45:52;;;;;;;;;;;;;;;21.30;55.03;101282.53;2202586;39;113607;-53
2021/06/19 02:47:24;;;;;;;;;;;;;;;21.30;54.89;101276.91;2205303;39;113816;-52
2021/06/19 02:48:56;;;;;;;;;;;;;;;21.29;54.83;101275.25;2203073;39;114018;-53
2021/06/19 02:50:29;;;;;;;;;;;;;;;21.30;54.74;101276.09;2197323;39;115407;-53
2021/06/19 02:52:01;;;;;;;;;;;;;;;21.31;54.68;101277.75;2203711;39;115245;-51
2021/06/19 02:53:33;;;;;;;;;;;;;;;21.29;54.71;101275.25;2204017;39;114935;-52
2021/06/19 02:55:05;;;;;;;;;;;;;;;21.31;55.03;101258.06;2203321;39;115062;-52
2021/06/19 02:56:37;;;;;;;;;;;;;;;21.30;54.68;101257.25;2199459;39;113858;-53
2021/06/19 02:58:09;;;;;;;;;;;;;;;21.29;54.98;101261.22;2202613;39;115020;-52
2021/06/19 02:59:41;;;;;;;;;;;;;;;21.30;55.06;101264.88;2196021;39;115317;-53
2021/06/19 03:01:13;;;;;;;;;;;;;;;21.30;54.89;101270.47;2199916;39;114833;-53
2021/06/19 03:02:46;;;;;;;;;;;;;;;21.32;54.53;101264.53;2195439;39;115392;-52
2021/06/19 03:04:20;;;;;;;;;;;;;;;21.31;54.68;101272.13;2194055;39;114933;-52
2021/06/19 03:05:52;;;;;;;;;;;;;;;21.29;54.71;101266.84;2199015;39;114890;-52
2021/06/19 03:07:24;;;;;;;;;;;;;;;21.30;54.75;101274.09;2202498;39;114840;-53
2021/06/19 03:08:56;;;;;;;;;;;;;;;21.29;54.81;101266.00;2200762;39;115193;-52
2021/06/19 03:10:29;;;;;;;;;;;;;;;21.31;54.82;101269.31;2202356;39;115532;-52
2021/06/19 03:12:01;;;;;;;;;;;;;;;21.30;54.88;101271.28;2204320;39;115454;-52
2021/06/19 03:13:33;;;;;;;;;;;;;;;21.30;54.61;101271.28;2209021;39;115593;-52
2021/06/19 03:15:06;;;;;;;;;;;;;;;21.31;54.81;101269.31;2195393;39;115814;-52
2021/06/19 03:16:37;;;;;;;;;;;;;;;21.32;54.78;101276.63;2191468;39;115603;-52
2021/06/19 03:18:09;;;;;;;;;;;;;;;21.32;55.09;101273.81;2197995;39;115509;-53
2021/06/19 03:19:41;;;;;;;;;;;;;;;21.29;55.09;101271.63;2203949;39;115467;-52
2021/06/19 03:21:13;;;;;;;;;;;;;;;21.32;54.53;101272.97;2207663;39;115458;-53
2021/06/19 03:22:46;;;;;;;;;;;;;;;21.32;55.12;101281.41;2206136;39;115497;-53
2021/06/19 03:24:18;;;;;;;;;;;;;;;21.32;54.88;101276.63;2204073;39;114594;-53
2021/06/19 03:25:50;;;;;;;;;;;;;;;21.30;55.07;101279.72;2202991;39;115556;-53
2021/06/19 03:27:22;;;;;;;;;;;;;;;21.30;55.03;101271.28;2202094;39;115727;-53
2021/06/19 03:28:54;;;;;;;;;;;;;;;21.30;55.04;101265.66;2199086;39;114583;-53
2021/06/19 03:30:26;;;;;;;;;;;;;;;21.31;54.90;101263.69;2202530;39;116063;-52
2021/06/19 03:31:58;;;;;;;;;;;;;;;21.32;54.96;101284.22;2199395;39;113787;-52
2021/06/19 03:33:30;;;;;;;;;;;;;;;21.32;55.16;101281.41;2204224;39;113721;-52
2021/06/19 03:35:02;;;;;;;;;;;;;;;21.31;55.19;101286.19;2203879;39;113737;-53
2021/06/19 03:36:34;;;;;;;;;;;;;;;21.32;55.05;101287.84;2211026;39;113933;-53
2021/06/19 03:38:06;;;;;;;;;;;;;;;21.31;54.83;101289.00;2195411;39;113682;-53
2021/06/19 03:39:38;;;;;;;;;;;;;;;21.32;54.95;101296.28;2203210;39;113872;-53
2021/06/19 03:41:10;;;;;;;;;;;;;;;21.32;55.17;101304.72;2195221;39;114029;-52
2021/06/19 03:42:43;;;;;;;;;;;;;;;21.32;55.09;101303.88;2200124;39;113713;-52
2021/06/19 03:44:15;;;;;;;;;;;;;;;21.32;54.84;101301.91;2197662;39;113842;-53
2021/06/19 03:45:47;;;;;;;;;;;;;;;21.32;54.88;101310.34;2201580;39;113891;-54
2021/06/19 03:47:18;;;;;;;;;;;;;;;21.33;54.96;101312.03;2204023;39;114056;-51
2021/06/19 03:48:50;;;;;;;;;;;;;;;21.33;54.83;101314.00;2199394;39;114034;-54
2021/06/19 03:50:24;;;;;;;;;;;;;;;21.33;54.88;101322.44;2202811;39;113765;-53
2021/06/19 03:51:57;;;;;;;;;;;;;;;21.32;55.01;101318.78;2196550;39;113666;-52
2021/06/19 03:53:29;;;;;;;;;;;;;;;21.33;54.96;101326.06;2198118;39;113780;-53
2021/06/19 03:55:02;;;;;;;;;;;;;;;21.32;54.70;101332.84;2195266;39;115250;-52
2021/06/19 03:56:34;;;;;;;;;;;;;;;21.32;54.87;101332.84;2200601;39;114808;-53
2021/06/19 03:58:05;;;;;;;;;;;;;;;21.32;54.96;101334.81;2197967;39;115382;-52
2021/06/19 03:59:37;;;;;;;;;;;;;;;21.32;55.00;101340.41;2193549;39;114307;-52
2021/06/19 04:01:11;;;;;;;;;;;;;;;21.32;54.82;101341.25;2202618;39;113989;-53
2021/06/19 04:02:43;;;;;;;;;;;;;;;21.34;55.16;101343.78;2200062;39;115045;-52
2021/06/19 04:04:14;;;;;;;;;;;;;;;21.33;54.96;101331.69;2202621;39;114875;-52
2021/06/19 04:05:46;;;;;;;;;;;;;;;21.33;54.77;101331.69;2198486;39;115168;-52
2021/06/19 04:07:18;;;;;;;;;;;;;;;21.32;55.03;101324.41;2203476;39;113933;-53
2021/06/19 04:08:51;;;;;;;;;;;;;;;21.31;54.94;101322.72;2201686;39;114982;-52
2021/06/19 04:10:25;;;;;;;;;;;;;;;21.30;54.92;101327.50;2193768;39;115402;-53
2021/06/19 04:11:57;;;;;;;;;;;;;;;21.33;54.71;101328.88;2197286;39;114876;-51
2021/06/19 04:13:29;;;;;;;;;;;;;;;21.32;54.80;101332.00;2199053;39;114912;-53
2021/06/19 04:15:01;;;;;;;;;;;;;;;21.31;55.14;101333.97;2205023;39;115054;-53
2021/06/19 04:16:33;;;;;;;;;;;;;;;21.32;54.80;101335.63;2203526;39;115593;-52
2021/06/19 04:18:05;;;;;;;;;;;;;;;21.32;54.78;101332.00;2196110;39;116159;-52
2021/06/19 04:19:37;;;;;;;;;;;;;;;21.31;54.82;101333.97;2196110;39;115471;-53
2021/06/19 04:21:09;;;;;;;;;;;;;;;21.32;54.88;101327.22;2201570;39;114628;-52
2021/06/19 04:22:41;;;;;;;;;;;;;;;21.30;54.67;101326.69;2196361;39;114484;-53
2021/06/19 04:24:13;;;;;;;;;;;;;;;21.32;55.33;101332.00;2195587;39;115978;-53
2021/06/19 04:25:45;;;;;;;;;;;;;;;21.30;54.89;101323.88;2197771;39;116008;-53
2021/06/19 04:27:19;;;;;;;;;;;;;;;21.30;55.05;101316.25;2197627;39;115543;-52
2021/06/19 04:28:51;;;;;;;;;;;;;;;21.30;55.25;101310.63;2198652;39;115678;-52
2021/06/19 04:30:23;;;;;;;;;;;;;;;21.31;55.08;101314.28;2195188;39;115571;-53
2021/06/19 04:31:55;;;;;;;;;;;;;;;21.32;55.11;101315.97;2194262;39;115456;-53
2021/06/19 04:33:27;;;;;;;;;;;;;;;21.30;55.03;101312.63;2195369;39;115680;-53
2021/06/19 04:34:59;;;;;;;;;;;;;;;21.32;55.16;101320.75;2197528;39;115867;-53
2021/06/19 04:36:31;;;;;;;;;;;;;;;21.31;55.04;101317.09;2192960;39;115486;-53
2021/06/19 04:38:03;;;;;;;;;;;;;;;21.29;54.69;101317.44;2193795;39;113899;-52
2021/06/19 04:39:39;;;;;;;;;;;;;;;21.29;55.03;101319.41;2195225;39;113874;-53
2021/06/19 04:41:23;;;;;;;;;;;;;;;21.29;54.90;101323.03;2190748;39;113805;-52
2021/06/19 04:42:57;;;;;;;;;;;;;;;21.33;55.08;101330.84;2195526;39;113671;-53
2021/06/19 04:46:01;;;;;;;;;;;;;;;21.31;55.05;101331.16;2194573;39;114028;-53
2021/06/19 04:47:34;;;;;;;;;;;;;;;21.31;55.11;101328.34;2193804;39;114165;-53
2021/06/19 04:49:05;;;;;;;;;;;;;;;21.30;55.18;101327.50;2196184;39;113815;-53
2021/06/19 04:50:37;;;;;;;;;;;;;;;21.30;55.12;101321.88;2195960;39;113762;-53
2021/06/19 04:52:09;;;;;;;;;;;;;;;21.30;55.03;101326.69;2196395;39;113715;-53
2021/06/19 04:53:41;;;;;;;;;;;;;;;21.30;55.03;101332.31;2194901;39;113620;-53
2021/06/19 04:55:15;;;;;;;;;;;;;;;21.30;55.02;101338.75;2198246;39;113750;-53
2021/06/19 04:56:47;;;;;;;;;;;;;;;21.32;55.01;101338.44;2197032;39;113772;-53
2021/06/19 04:58:19;;;;;;;;;;;;;;;21.32;55.06;101340.41;2199379;39;113829;-52
2021/06/19 04:59:51;;;;;;;;;;;;;;;21.33;55.03;101354.19;2198192;39;115222;-53
2021/06/19 05:01:23;;;;;;;;;;;;;;;21.31;54.72;101356.44;2195747;39;115118;-53
2021/06/19 05:02:58;;;;;;;;;;;;;;;21.30;54.84;101355.59;2195809;39;115591;-52
2021/06/19 05:04:30;;;;;;;;;;;;;;;21.32;54.56;101368.53;2196241;39;114874;-53
2021/06/19 05:06:01;;;;;;;;;;;;;;;21.32;54.88;101372.19;2198228;39;114855;-52
2021/06/19 05:07:34;;;;;;;;;;;;;;;21.30;54.50;101380.91;2195475;39;113898;-52
2021/06/19 05:09:06;;;;;;;;;;;;;;;21.31;54.74;101376.13;2199186;39;115160;-52
2021/06/19 05:10:38;;;;;;;;;;;;;;;21.30;54.88;101375.28;2196631;39;114937;-52
2021/06/19 05:12:11;;;;;;;;;;;;;;;21.30;54.79;101374.47;2198634;39;114872;-52
2021/06/19 05:13:43;;;;;;;;;;;;;;;21.30;54.46;101372.47;2197023;39;115007;-52
2021/06/19 05:15:18;;;;;;;;;;;;;;;21.30;54.46;101382.91;2198446;39;114959;-52
2021/06/19 05:16:50;;;;;;;;;;;;;;;21.30;54.43;101383.72;2196253;39;114089;-52
2021/06/19 05:18:22;;;;;;;;;;;;;;;21.29;54.83;101384.88;2195734;39;114801;-53
2021/06/19 05:19:54;;;;;;;;;;;;;;;21.31;54.73;101390.19;2194439;39;114779;-53
2021/06/19 05:21:26;;;;;;;;;;;;;;;21.29;54.95;101387.69;2195549;39;114585;-54
2021/06/19 05:22:59;;;;;;;;;;;;;;;21.30;54.85;101391.34;2189347;39;115464;-53
2021/06/19 05:24:31;;;;;;;;;;;;;;;21.28;54.66;101386.00;2186427;39;115520;-52
2021/06/19 05:26:03;;;;;;;;;;;;;;;21.30;54.71;101391.34;2196356;39;115530;-53
2021/06/19 05:27:35;;;;;;;;;;;;;;;21.29;54.86;101384.03;2198538;39;116108;-52
2021/06/19 05:29:07;;;;;;;;;;;;;;;21.29;54.74;101381.22;2201509;39;115453;-53
2021/06/19 05:30:39;;;;;;;;;;;;;;;21.29;54.63;101379.25;2198329;39;115945;-53
2021/06/19 05:32:11;;;;;;;;;;;;;;;21.28;55.06;101374.78;2198601;39;115928;-53
2021/06/19 05:33:42;;;;;;;;;;;;;;;21.29;54.61;101367.19;2196077;39;114607;-53
2021/06/19 05:35:14;;;;;;;;;;;;;;;21.28;54.89;101365.50;2197058;39;115476;-53
2021/06/19 05:36:46;;;;;;;;;;;;;;;21.29;54.93;101361.56;2198686;39;115884;-52
2021/06/19 05:38:19;;;;;;;;;;;;;;;21.28;55.05;101368.31;2184951;39;115107;-53
2021/06/19 05:39:50;;;;;;;;;;;;;;;21.28;54.71;101357.06;2189431;39;114603;-53
2021/06/19 05:41:22;;;;;;;;;;;;;;;21.30;54.80;101361.22;2195898;39;115505;-52
2021/06/19 05:42:54;;;;;;;;;;;;;;;21.28;54.91;101359.88;2193999;39;115490;-52
2021/06/19 05:44:26;;;;;;;;;;;;;;;21.27;54.68;101353.41;2196400;39;113588;-52
2021/06/19 05:45:58;;;;;;;;;;;;;;;21.28;54.98;101354.25;2196824;39;113941;-52
2021/06/19 05:47:30;;;;;;;;;;;;;;;21.28;55.13;101354.25;2191115;39;114178;-52
2021/06/19 05:49:02;;;;;;;;;;;;;;;21.28;54.71;101340.22;2194091;39;113712;-53
2021/06/19 05:50:34;;;;;;;;;;;;;;;21.29;55.16;101339.06;2191740;39;114001;-52
2021/06/19 05:52:06;;;;;;;;;;;;;;;21.27;54.84;101349.78;2189117;39;113855;-52
2021/06/19 05:53:38;;;;;;;;;;;;;;;21.26;54.93;101346.13;2195620;39;113896;-52
2021/06/19 05:55:10;;;;;;;;;;;;;;;21.28;55.19;101351.44;2198291;39;113945;-53
2021/06/19 05:56:42;;;;;;;;;;;;;;;21.28;54.75;101349.47;2197024;39;114020;-53
2021/06/19 05:58:14;;;;;;;;;;;;;;;21.28;54.99;101345.81;2195341;39;113915;-53
2021/06/19 05:59:46;;;;;;;;;;;;;;;21.27;54.96;101347.78;2197888;39;114074;-53
2021/06/19 06:01:18;;;;;;;;;;;;;;;21.28;55.32;101357.06;2191498;39;113847;-53
2021/06/19 06:02:50;;;;;;;;;;;;;;;21.27;55.10;101344.16;2194970;39;113919;-53
2021/06/19 06:04:22;;;;;;;;;;;;;;;21.29;54.96;101355.94;2200204;39;113953;-55
2021/06/19 06:05:53;;;;;;;;;;;;;;;21.28;55.16;101359.88;2193825;39;114781;-53
2021/06/19 06:07:25;;;;;;;;;;;;;;;21.27;55.00;101358.19;2195663;39;114882;-53
2021/06/19 06:08:57;;;;;;;;;;;;;;;21.26;54.95;101360.16;2190661;39;114267;-52
2021/06/19 06:10:29;;;;;;;;;;;;;;;21.27;55.23;101364.66;2196504;39;116028;-52
2021/06/19 06:12:01;;;;;;;;;;;;;;;21.28;54.91;101363.53;2202484;39;114839;-53
2021/06/19 06:13:34;;;;;;;;;;;;;;;21.28;55.08;101359.88;2197938;39;115361;-53
2021/06/19 06:15:08;;;;;;;;;;;;;;;21.26;55.19;101360.16;2190549;39;114233;-53
2021/06/19 06:16:40;;;;;;;;;;;;;;;21.28;55.27;101357.91;2190896;39;117176;-51
2021/06/19 06:18:12;;;;;;;;;;;;;;;21.29;55.07;101355.94;2197017;39;115244;-52
2021/06/19 06:19:43;;;;;;;;;;;;;;;21.28;55.17;101360.72;2201707;39;114774;-53
2021/06/19 06:21:15;;;;;;;;;;;;;;;21.28;55.01;101355.09;2196765;39;114857;-52
2021/06/19 06:22:47;;;;;;;;;;;;;;;21.29;55.25;101350.31;2201907;39;115324;-54
2021/06/19 06:24:19;;;;;;;;;;;;;;;21.29;55.29;101347.50;2205037;39;114849;-53
2021/06/19 06:25:51;;;;;;;;;;;;;;;21.29;55.15;101339.91;2207091;39;113843;-53
2021/06/19 06:27:23;;;;;;;;;;;;;;;21.29;55.46;101344.69;2204252;39;114557;-52
2021/06/19 06:28:55;;;;;;;;;;;;;;;21.32;55.66;101335.63;2202638;39;115443;-53
2021/06/19 06:30:27;;;;;;;;;;;;;;;21.32;55.39;101340.41;2201569;39;115653;-53
2021/06/19 06:31:58;;;;;;;;;;;;;;;21.31;55.02;101356.44;2204581;39;115350;-53
2021/06/19 06:33:30;;;;;;;;;;;;;;;21.32;55.23;101358.13;2202114;39;115421;-53
2021/06/19 06:35:04;;;;;;;;;;;;;;;21.32;54.89;101366.56;2199041;39;115349;-52
2021/06/19 06:36:36;;;;;;;;;;;;;;;21.30;55.26;101364.03;2200605;39;114520;-52
2021/06/19 06:38:08;;;;;;;;;;;;;;;21.30;55.13;101368.84;2203721;39;115440;-53
2021/06/19 06:39:40;;;;;;;;;;;;;;;21.31;55.08;101378.94;2204865;39;115610;-53
2021/06/19 06:41:12;;;;;;;;;;;;;;;21.29;55.28;101370.81;2202738;39;114561;-52
2021/06/19 06:42:44;;;;;;;;;;;;;;;21.32;55.02;101366.56;2195310;39;115306;-52
2021/06/19 06:44:17;;;;;;;;;;;;;;;21.30;55.23;101352.81;2201928;39;115621;-52
2021/06/19 06:45:49;;;;;;;;;;;;;;;21.32;55.12;101357.28;2195645;39;116065;-52
2021/06/19 06:47:21;;;;;;;;;;;;;;;21.30;55.21;101361.22;2195531;39;115542;-53
2021/06/19 06:48:53;;;;;;;;;;;;;;;21.33;54.94;101370.22;2197931;39;114381;-53
2021/06/19 06:50:26;;;;;;;;;;;;;;;21.31;55.19;101373.31;2199426;39;113913;-52
2021/06/19 06:51:58;;;;;;;;;;;;;;;21.30;55.17;101389.34;2200530;39;113854;-54
2021/06/19 06:53:30;;;;;;;;;;;;;;;21.32;55.07;101379.78;2206297;39;113681;-53
2021/06/19 06:55:03;;;;;;;;;;;;;;;21.32;55.10;101380.63;2203301;39;113893;-52
2021/06/19 06:56:35;;;;;;;;;;;;;;;21.32;55.05;101377.81;2202865;39;113726;-53
2021/06/19 06:58:07;;;;;;;;;;;;;;;21.31;55.13;101373.31;2202435;39;113923;-52
2021/06/19 06:59:39;;;;;;;;;;;;;;;21.29;55.34;101375.59;2201319;39;113844;-53
2021/06/19 07:01:11;;;;;;;;;;;;;;;21.31;55.38;101373.31;2194063;39;113858;-52
2021/06/19 07:02:44;;;;;;;;;;;;;;;21.30;55.06;101375.28;2198424;39;113830;-53
2021/06/19 07:04:15;;;;;;;;;;;;;;;21.32;55.16;101366.56;2195209;39;113601;-52
2021/06/19 07:05:50;;;;;;;;;;;;;;;21.30;55.18;101357.63;2189300;39;114118;-53
2021/06/19 07:07:22;;;;;;;;;;;;;;;21.32;55.00;101362.91;2195508;39;114142;-53
2021/06/19 07:08:54;;;;;;;;;;;;;;;21.30;55.05;101364.03;2202491;39;114044;-52
2021/06/19 07:10:26;;;;;;;;;;;;;;;21.31;55.38;101370.50;2208870;39;113674;-53
2021/06/19 07:11:58;;;;;;;;;;;;;;;21.32;55.47;101374.16;2195309;39;113918;-52
2021/06/19 07:13:30;;;;;;;;;;;;;;;21.32;55.29;101358.13;2188141;39;114919;-53
2021/06/19 07:15:03;;;;;;;;;;;;;;;21.32;54.89;101362.91;2200115;39;115087;-54
2021/06/19 07:16:34;;;;;;;;;;;;;;;21.33;54.89;101353.34;2195326;39;114805;-52
2021/06/19 07:18:06;;;;;;;;;;;;;;;21.34;55.21;101360.66;2199729;39;116205;-53
2021/06/19 07:19:39;;;;;;;;;;;;;;;21.33;54.98;101367.41;2202416;39;114811;-52
2021/06/19 07:21:12;;;;;;;;;;;;;;;21.32;55.09;101369.38;2197927;39;114846;-53
2021/06/19 07:22:44;;;;;;;;;;;;;;;21.31;55.03;101362.06;2205385;39;114875;-53
2021/06/19 07:24:15;;;;;;;;;;;;;;;21.32;55.10;101352.50;2195234;39;114912;-52
2021/06/19 07:25:48;;;;;;;;;;;;;;;21.31;55.28;101345.22;2202356;39;114834;-52
2021/06/19 07:27:20;;;;;;;;;;;;;;;21.30;55.48;101352.81;2204044;39;114895;-53
2021/06/19 07:28:51;;;;;;;;;;;;;;;21.31;55.35;101356.44;2197685;39;115168;-53
2021/06/19 07:30:23;;;;;;;;;;;;;;;21.32;55.32;101362.91;2194425;39;115221;-53
2021/06/19 07:31:55;;;;;;;;;;;;;;;21.30;55.17;101341.56;2202734;39;114808;-52
2021/06/19 07:33:27;;;;;;;;;;;;;;;21.29;55.41;101351.16;2203811;39;115926;-53
2021/06/19 07:34:59;;;;;;;;;;;;;;;21.30;55.07;101355.59;2202739;39;114525;-53
2021/06/19 07:36:31;;;;;;;;;;;;;;;21.32;55.35;101349.69;2204250;39;115686;-53
2021/06/19 07:38:02;;;;;;;;;;;;;;;21.30;55.25;101358.41;2204514;39;115616;-52
2021/06/19 07:39:34;;;;;;;;;;;;;;;21.32;55.11;101343.22;2194856;39;115768;-53
2021/06/19 07:41:06;;;;;;;;;;;;;;;21.33;55.32;101353.34;2200080;39;116164;-53
2021/06/19 07:42:38;;;;;;;;;;;;;;;21.33;55.17;101356.16;2203831;39;115237;-53
2021/06/19 07:44:11;;;;;;;;;;;;;;;21.33;55.04;101359.81;2203547;39;115015;-53
2021/06/19 07:45:43;;;;;;;;;;;;;;;21.32;55.24;101360.94;2198646;39;115703;-52
2021/06/19 07:47:15;;;;;;;;;;;;;;;21.33;55.18;101357.00;2201749;39;115449;-52
2021/06/19 07:48:47;;;;;;;;;;;;;;;21.34;55.31;101355.03;2203537;39;115597;-53
2021/06/19 07:50:19;;;;;;;;;;;;;;;21.33;55.20;101356.16;2203667;39;116148;-52
2021/06/19 07:51:52;;;;;;;;;;;;;;;21.32;55.28;101344.06;2197519;39;115638;-52
2021/06/19 07:53:24;;;;;;;;;;;;;;;21.32;55.34;101349.69;2197330;39;115463;-53